createdAt,value
2022-12-23T09:42:49.906Z,97763.20
2022-12-23T09:45:50.395Z,97762.40
2022-12-23T09:48:22.539Z,97771.40
2022-12-23T09:50:49.107Z,97762.40
2022-12-23T09:53:21.346Z,97764.40
2022-12-23T09:56:08.932Z,97763.60
2022-12-23T09:58:52.260Z,97763.20
2022-12-23T10:01:34.104Z,97760.60
2022-12-23T10:04:22.022Z,97754.00
2022-12-23T10:07:05.562Z,97751.80
2022-12-23T10:09:39.393Z,97753.00
2022-12-23T10:12:23.620Z,97754.00
2022-12-23T10:14:59.346Z,97741.20
2022-12-23T10:17:34.232Z,97740.00
2022-12-23T10:20:05.715Z,97733.20
2022-12-23T10:22:40.184Z,97737.60
2022-12-23T10:25:50.616Z,97732.20
2022-12-23T10:28:17.732Z,97736.40
2022-12-23T10:31:30.514Z,97736.00
2022-12-23T10:34:19.729Z,97737.80
2022-12-23T10:37:02.619Z,97735.00
2022-12-23T10:39:45.291Z,97737.60
2022-12-23T10:42:40.305Z,97733.00
2022-12-23T10:45:18.768Z,97726.20
2022-12-23T10:48:14.553Z,97728.00
2022-12-23T10:50:58.287Z,97720.60
2022-12-23T10:53:33.228Z,97722.80
2022-12-23T10:56:01.189Z,97725.60
2022-12-23T10:58:28.116Z,97718.00
2022-12-23T11:00:59.332Z,97719.80
2022-12-23T11:03:40.675Z,97722.20
2022-12-23T11:06:11.402Z,97718.00
2022-12-23T11:08:39.861Z,97715.60
2022-12-23T11:11:07.638Z,97713.20
2022-12-23T11:13:40.437Z,97712.80
2022-12-23T11:16:25.889Z,97710.20
2022-12-23T11:19:15.859Z,97708.40
2022-12-23T11:21:56.274Z,97714.20
2022-12-23T11:24:25.844Z,97703.20
2022-12-23T11:27:11.439Z,97704.00
2022-12-23T11:29:45.552Z,97700.40
2022-12-23T11:32:25.186Z,97701.00
2022-12-23T11:34:53.716Z,97702.00
2022-12-23T11:37:37.917Z,97700.80
2022-12-23T11:40:15.004Z,97695.60
2022-12-23T11:42:43.082Z,97691.20
2022-12-23T11:45:09.726Z,97693.00
2022-12-23T11:47:41.062Z,97695.80
2022-12-23T11:50:20.157Z,97694.20
2022-12-23T11:52:53.097Z,97695.20
2022-12-23T11:55:32.838Z,97700.40
2022-12-23T11:58:02.435Z,97702.00
2022-12-23T12:00:40.809Z,97700.60
2022-12-23T12:03:19.345Z,97703.00
2022-12-23T12:05:59.203Z,97702.40
2022-12-23T12:08:32.970Z,97699.00
2022-12-23T12:11:12.245Z,97697.20
2022-12-23T12:13:47.835Z,97704.80
2022-12-23T12:16:45.178Z,97699.00
2022-12-23T12:19:41.790Z,97706.60
2022-12-23T12:22:32.096Z,97707.20
2022-12-23T12:25:17.084Z,97703.40
2022-12-23T12:27:53.763Z,97704.60
2022-12-23T12:30:22.230Z,97701.20
2022-12-23T12:33:01.046Z,97707.20
2022-12-23T12:35:40.553Z,97701.20
2022-12-23T12:38:25.380Z,97706.60
2022-12-23T12:41:13.176Z,97713.40
2022-12-23T12:43:55.044Z,97705.80
2022-12-23T12:46:36.553Z,97701.80
2022-12-23T12:49:52.046Z,97700.80
2022-12-23T12:52:27.903Z,97710.00
2022-12-23T12:54:59.736Z,97707.00
2022-12-23T12:57:26.527Z,97710.00
2022-12-23T13:00:05.553Z,97707.80
2022-12-23T13:02:45.054Z,97710.40
2022-12-23T13:05:59.578Z,97703.40
2022-12-23T13:08:47.345Z,97700.20
2022-12-23T13:11:28.522Z,97704.00
2022-12-23T13:14:43.006Z,97703.00
2022-12-23T13:17:27.804Z,97704.00
2022-12-23T13:20:23.900Z,97703.40
2022-12-23T13:23:27.030Z,97700.80
2022-12-23T13:26:04.732Z,97700.60
2022-12-23T13:29:25.916Z,97712.40
2022-12-23T13:31:56.095Z,97713.60
2022-12-23T13:34:39.835Z,97713.00
2022-12-23T13:37:45.363Z,97717.60
2022-12-23T13:40:40.016Z,97705.60
2022-12-23T13:43:18.438Z,97715.60
2022-12-23T13:45:48.021Z,97713.20
2022-12-23T13:48:32.869Z,97716.20
2022-12-23T13:51:29.640Z,97715.20
2022-12-23T13:54:19.751Z,97719.20
2022-12-23T13:57:24.602Z,97722.80
2022-12-23T14:00:18.264Z,97725.60
2022-12-23T14:03:12.757Z,97723.40
2022-12-23T14:05:45.236Z,97725.80
2022-12-23T14:08:26.879Z,97728.60
2022-12-23T14:11:14.774Z,97733.80
2022-12-23T14:13:52.195Z,97738.40
2022-12-23T14:16:36.547Z,97742.60
2022-12-23T14:19:18.903Z,97748.20
2022-12-23T14:22:19.259Z,97751.40
2022-12-23T14:25:19.309Z,97753.20
2022-12-23T14:28:13.443Z,97756.40
2022-12-23T14:30:45.812Z,97751.80
2022-12-23T14:33:25.205Z,97749.80
2022-12-23T14:35:54.377Z,97750.00
2022-12-23T14:38:32.564Z,97745.80
2022-12-23T14:41:37.195Z,97749.20
2022-12-23T14:44:03.789Z,97750.00
2022-12-23T14:46:36.301Z,97747.40
2022-12-23T14:49:36.921Z,97754.60
2022-12-23T14:51:50.942Z,97757.60
2022-12-23T14:54:36.577Z,97750.60
2022-12-23T14:57:18.478Z,97746.40
2022-12-23T15:00:02.826Z,97747.40
2022-12-23T15:02:38.887Z,97745.40
2022-12-23T15:05:05.841Z,97748.60
2022-12-23T15:07:40.586Z,97748.20
2022-12-23T15:10:16.643Z,97756.80
2022-12-23T15:12:49.613Z,97757.00
2022-12-23T15:15:20.179Z,97752.40
2022-12-23T15:17:48.005Z,97755.00
2022-12-23T15:20:21.205Z,97760.40
2022-12-23T15:22:49.226Z,97768.20
2022-12-23T15:25:25.405Z,97765.80
2022-12-23T15:28:01.215Z,97772.40
2022-12-23T15:30:48.341Z,97777.80
2022-12-23T15:34:00.585Z,97778.00
2022-12-23T15:36:10.468Z,97772.00
2022-12-23T15:38:39.375Z,97769.00
2022-12-23T15:41:16.527Z,97769.00
2022-12-23T15:43:44.268Z,97765.80
2022-12-23T15:46:25.168Z,97759.20
2022-12-23T15:48:56.745Z,97751.20
2022-12-23T15:52:07.031Z,97755.80
2022-12-23T15:54:26.621Z,97751.40
2022-12-23T15:56:54.567Z,97754.60
2022-12-23T15:59:27.618Z,97758.20
2022-12-23T16:01:55.046Z,97758.00
2022-12-23T16:04:29.261Z,97763.40
2022-12-23T16:06:56.227Z,97762.20
2022-12-23T16:09:33.943Z,97759.80
2022-12-23T16:12:15.685Z,97770.00
2022-12-23T16:14:49.417Z,97768.80
2022-12-23T16:17:23.870Z,97767.60
2022-12-23T16:20:12.993Z,97765.40
2022-12-23T16:22:39.712Z,97768.60
2022-12-23T16:25:31.660Z,97759.40
2022-12-23T16:28:13.021Z,97756.80
2022-12-23T16:30:42.458Z,97760.40
2022-12-23T16:33:35.965Z,97765.00
2022-12-23T16:36:27.064Z,97759.40
2022-12-23T16:39:00.824Z,97754.80
2022-12-23T16:41:27.254Z,97754.20
2022-12-23T16:43:53.814Z,97758.20
2022-12-23T16:46:23.214Z,97761.60
2022-12-23T16:48:58.616Z,97759.60
2022-12-23T16:51:27.748Z,97761.80
2022-12-23T16:53:57.346Z,97767.60
2022-12-23T16:56:29.890Z,97773.00
2022-12-23T16:58:56.398Z,97774.00
2022-12-23T17:01:27.109Z,97775.60
2022-12-23T17:03:55.822Z,97774.20
2022-12-23T17:06:23.504Z,97771.00
2022-12-23T17:08:50.568Z,97773.60
2022-12-23T17:11:25.361Z,97770.80
2022-12-23T17:13:54.366Z,97759.40
2022-12-23T17:16:25.847Z,97764.60
2022-12-23T17:18:53.255Z,97762.40
2022-12-23T17:21:25.065Z,97760.60
2022-12-23T17:23:56.683Z,97763.60
2022-12-23T17:26:23.174Z,97769.40
2022-12-23T17:28:49.999Z,97773.00
2022-12-23T17:31:26.297Z,97776.40
2022-12-23T17:33:54.150Z,97781.80
2022-12-23T17:36:21.471Z,97785.00
2022-12-23T17:38:48.203Z,97783.20
2022-12-23T17:41:31.281Z,97780.80
2022-12-23T17:43:58.664Z,97787.00
2022-12-23T17:46:26.939Z,97786.80
2022-12-23T17:48:53.682Z,97789.00
2022-12-23T17:51:23.121Z,97793.00
2022-12-23T17:53:57.667Z,97796.40
2022-12-23T17:56:28.463Z,97796.60
2022-12-23T17:58:55.110Z,97796.60
2022-12-23T18:01:31.942Z,97799.40
2022-12-23T18:04:00.310Z,97801.40
2022-12-23T18:06:29.144Z,97802.80
2022-12-23T18:08:59.335Z,97814.00
2022-12-23T18:11:46.703Z,97816.20
2022-12-23T18:14:27.561Z,97819.20
2022-12-23T18:16:54.464Z,97817.00
2022-12-23T18:19:21.594Z,97818.20
2022-12-23T18:21:48.622Z,97824.40
2022-12-23T18:24:15.174Z,97819.60
2022-12-23T18:26:43.947Z,97828.00
2022-12-23T18:29:10.549Z,97837.60
2022-12-23T18:31:51.049Z,97843.00
2022-12-23T18:34:19.080Z,97844.40
2022-12-23T18:36:46.250Z,97839.60
2022-12-23T18:39:12.748Z,97838.40
2022-12-23T18:41:40.490Z,97840.00
2022-12-23T18:44:18.294Z,97840.80
2022-12-23T18:46:44.771Z,97844.60
2022-12-23T18:49:11.608Z,97844.20
2022-12-23T18:51:38.035Z,97844.80
2022-12-23T18:54:04.654Z,97850.00
2022-12-23T18:56:31.136Z,97853.80
2022-12-23T18:58:57.537Z,97852.00
2022-12-23T19:01:24.034Z,97850.20
2022-12-23T19:03:50.467Z,97855.00
2022-12-23T19:06:17.053Z,97845.00
2022-12-23T19:08:43.934Z,97840.60
2022-12-23T19:11:20.529Z,97842.40
2022-12-23T19:13:47.912Z,97842.00
2022-12-23T19:16:20.567Z,97844.40
2022-12-23T19:18:48.599Z,97834.40
2022-12-23T19:21:15.999Z,97826.60
2022-12-23T19:23:43.750Z,97826.80
2022-12-23T19:26:14.067Z,97829.60
2022-12-23T19:28:41.556Z,97834.00
2022-12-23T19:31:14.440Z,97846.80
2022-12-23T19:33:44.805Z,97844.40
2022-12-23T19:36:23.050Z,97852.00
2022-12-23T19:38:50.255Z,97860.20
2022-12-23T19:41:17.479Z,97866.80
2022-12-23T19:43:46.724Z,97873.40
2022-12-23T19:46:15.391Z,97868.40
2022-12-23T19:48:42.521Z,97875.20
2022-12-23T19:51:14.263Z,97872.60
2022-12-23T19:53:42.560Z,97871.20
2022-12-23T19:56:15.666Z,97859.00
2022-12-23T19:58:44.085Z,97859.60
2022-12-23T20:01:20.360Z,97864.40
2022-12-23T20:03:49.303Z,97862.60
2022-12-23T20:06:21.545Z,97861.60
2022-12-23T20:08:49.021Z,97867.40
2022-12-23T20:11:22.675Z,97871.40
2022-12-23T20:13:57.246Z,97871.00
2022-12-23T20:16:24.039Z,97871.20
2022-12-23T20:18:51.209Z,97862.40
2022-12-23T20:21:18.199Z,97868.20
2022-12-23T20:23:45.010Z,97868.20
2022-12-23T20:26:16.438Z,97859.80
2022-12-23T20:28:42.911Z,97857.20
2022-12-23T20:31:15.500Z,97855.40
2022-12-23T20:33:42.972Z,97854.60
2022-12-23T20:36:12.295Z,97848.00
2022-12-23T20:38:41.764Z,97847.40
2022-12-23T20:41:11.128Z,97845.20
2022-12-23T20:43:37.535Z,97850.00
2022-12-23T20:46:06.516Z,97849.00
2022-12-23T20:48:34.793Z,97850.80
2022-12-23T20:51:23.627Z,97848.60
2022-12-23T20:53:53.232Z,97847.80
2022-12-23T20:56:21.639Z,97846.00
2022-12-23T20:58:54.560Z,97841.40
2022-12-23T21:01:32.254Z,97844.60
2022-12-23T21:04:15.692Z,97849.40
2022-12-23T21:06:43.393Z,97842.60
2022-12-23T21:09:13.296Z,97838.60
2022-12-23T21:11:43.668Z,97840.20
2022-12-23T21:14:12.012Z,97853.60
2022-12-23T21:16:40.342Z,97856.60
2022-12-23T21:19:12.948Z,97854.20
2022-12-23T21:21:39.336Z,97852.20
2022-12-23T21:24:06.491Z,97854.20
2022-12-23T21:26:34.707Z,97855.80
2022-12-23T21:29:04.901Z,97858.60
2022-12-23T21:31:35.797Z,97862.00
2022-12-23T21:34:03.036Z,97868.00
2022-12-23T21:36:34.279Z,97864.80
2022-12-23T21:39:01.192Z,97867.60
2022-12-23T21:41:35.621Z,97867.60
2022-12-23T21:44:03.111Z,97864.80
2022-12-23T21:46:29.793Z,97863.20
2022-12-23T21:48:58.492Z,97865.20
2022-12-23T21:51:36.679Z,97869.00
2022-12-23T21:54:05.557Z,97869.00
2022-12-23T21:56:32.129Z,97864.80
2022-12-23T21:59:05.440Z,97862.40
2022-12-23T22:01:33.729Z,97859.80
2022-12-23T22:04:00.235Z,97856.60
2022-12-23T22:06:31.890Z,97852.60
2022-12-23T22:08:59.032Z,97864.00
2022-12-23T22:11:30.245Z,97861.00
2022-12-23T22:13:59.386Z,97865.60
2022-12-23T22:16:29.286Z,97865.40
2022-12-23T22:18:57.869Z,97864.20
2022-12-23T22:21:27.117Z,97860.20
2022-12-23T22:23:55.434Z,97860.60
2022-12-23T22:26:29.356Z,97856.60
2022-12-23T22:28:59.373Z,97860.00
2022-12-23T22:31:38.426Z,97856.40
2022-12-23T22:34:07.234Z,97859.60
2022-12-23T22:36:34.390Z,97854.60
2022-12-23T22:39:02.289Z,97858.20
2022-12-23T22:41:30.367Z,97853.40
2022-12-23T22:43:59.301Z,97840.40
2022-12-23T22:46:26.502Z,97825.20
2022-12-23T22:48:53.967Z,97820.80
2022-12-23T22:51:27.626Z,97820.00
2022-12-23T22:53:55.192Z,97833.20
2022-12-23T22:56:24.305Z,97837.20
2022-12-23T22:58:52.558Z,97843.60
2022-12-23T23:01:30.352Z,97837.80
2022-12-23T23:04:00.193Z,97838.80
2022-12-23T23:06:33.930Z,97829.00
2022-12-23T23:09:01.227Z,97824.00
2022-12-23T23:11:28.855Z,97825.40
2022-12-23T23:13:56.940Z,97822.60
2022-12-23T23:16:24.993Z,97822.80
2022-12-23T23:18:53.106Z,97820.20
2022-12-23T23:21:20.581Z,97821.80
2022-12-23T23:23:47.101Z,97821.20
2022-12-23T23:26:14.472Z,97811.80
2022-12-23T23:28:41.882Z,97809.40
2022-12-23T23:31:40.401Z,97797.40
2022-12-23T23:33:57.712Z,97794.40
2022-12-23T23:36:24.254Z,97799.00
2022-12-23T23:38:50.727Z,97805.00
2022-12-23T23:41:22.419Z,97798.60
2022-12-23T23:43:49.554Z,97795.20
2022-12-23T23:46:16.131Z,97800.80
2022-12-23T23:48:42.651Z,97800.60
2022-12-23T23:51:09.069Z,97799.20
2022-12-23T23:53:35.610Z,97801.40
2022-12-23T23:56:05.357Z,97796.00
2022-12-23T23:58:32.775Z,97798.20
